sensor_id;sensor_type;location;lat;lon;timestamp;temperature;humidity
17843;DHT22;69286;48.222;16.332;2023-06-22T00:00:49;22.70;99.50
17843;DHT22;69286;48.222;16.332;2023-06-22T00:03:17;22.60;99.90
17843;DHT22;69286;48.222;16.332;2023-06-22T00:05:45;22.60;99.90
17843;DHT22;69286;48.222;16.332;2023-06-22T00:08:12;22.60;99.90
17843;DHT22;69286;48.222;16.332;2023-06-22T00:10:39;22.70;99.90
17843;DHT22;69286;48.222;16.332;2023-06-22T00:13:07;22.60;99.90
17843;DHT22;69286;48.222;16.332;2023-06-22T00:15:37;22.50;99.90
17843;DHT22;69286;48.222;16.332;2023-06-22T00:18:06;22.60;99.90
17843;DHT22;69286;48.222;16.332;2023-06-22T00:20:33;22.60;99.90
17843;DHT22;69286;48.222;16.332;2023-06-22T00:23:03;22.60;99.90
17843;DHT22;69286;48.222;16.332;2023-06-22T00:25:34;22.40;99.90
17843;DHT22;69286;48.222;16.332;2023-06-22T00:28:01;22.50;99.90
17843;DHT22;69286;48.222;16.332;2023-06-22T00:30:30;22.30;99.90
17843;DHT22;69286;48.222;16.332;2023-06-22T00:32:58;22.30;99.90
17843;DHT22;69286;48.222;16.332;2023-06-22T00:35:26;22.30;99.90
17843;DHT22;69286;48.222;16.332;2023-06-22T00:37:54;22.20;99.90
17843;DHT22;69286;48.222;16.332;2023-06-22T00:40:26;22.20;99.90
17843;DHT22;69286;48.222;16.332;2023-06-22T00:42:54;22.20;99.90
17843;DHT22;69286;48.222;16.332;2023-06-22T00:45:21;22.10;99.90
17843;DHT22;69286;48.222;16.332;2023-06-22T00:47:50;22.10;99.90
17843;DHT22;69286;48.222;16.332;2023-06-22T00:50:21;22.10;99.90
17843;DHT22;69286;48.222;16.332;2023-06-22T00:52:50;22.00;99.90
17843;DHT22;69286;48.222;16.332;2023-06-22T00:55:18;21.90;99.90
17843;DHT22;69286;48.222;16.332;2023-06-22T00:57:46;22.00;99.90
17843;DHT22;69286;48.222;16.332;2023-06-22T01:00:14;22.00;99.90
17843;DHT22;69286;48.222;16.332;2023-06-22T01:02:42;21.90;99.90
17843;DHT22;69286;48.222;16.332;2023-06-22T01:05:11;22.00;99.90
17843;DHT22;69286;48.222;16.332;2023-06-22T01:07:44;21.90;99.90
17843;DHT22;69286;48.222;16.332;2023-06-22T01:10:18;21.90;99.90
17843;DHT22;69286;48.222;16.332;2023-06-22T01:12:52;21.90;99.90
17843;DHT22;69286;48.222;16.332;2023-06-22T01:15:25;21.80;99.90
17843;DHT22;69286;48.222;16.332;2023-06-22T01:17:56;21.80;99.90
17843;DHT22;69286;48.222;16.332;2023-06-22T01:20:25;21.80;99.90
17843;DHT22;69286;48.222;16.332;2023-06-22T01:23:05;21.70;99.90
17843;DHT22;69286;48.222;16.332;2023-06-22T01:25:46;21.70;99.90
17843;DHT22;69286;48.222;16.332;2023-06-22T01:28:39;21.70;99.90
17843;DHT22;69286;48.222;16.332;2023-06-22T01:31:08;21.70;99.90
17843;DHT22;69286;48.222;16.332;2023-06-22T01:33:41;21.70;99.90
17843;DHT22;69286;48.222;16.332;2023-06-22T01:36:09;21.70;99.90
17843;DHT22;69286;48.222;16.332;2023-06-22T01:38:37;21.70;99.90
17843;DHT22;69286;48.222;16.332;2023-06-22T01:41:05;21.60;99.90
17843;DHT22;69286;48.222;16.332;2023-06-22T01:43:33;21.60;99.90
17843;DHT22;69286;48.222;16.332;2023-06-22T01:46:03;21.50;99.90
17843;DHT22;69286;48.222;16.332;2023-06-22T01:48:31;21.50;99.90
17843;DHT22;69286;48.222;16.332;2023-06-22T01:50:58;21.50;99.90
17843;DHT22;69286;48.222;16.332;2023-06-22T01:53:25;21.50;99.90
17843;DHT22;69286;48.222;16.332;2023-06-22T01:55:52;21.50;99.90
17843;DHT22;69286;48.222;16.332;2023-06-22T01:58:20;21.50;99.90
17843;DHT22;69286;48.222;16.332;2023-06-22T02:00:53;21.40;99.90
17843;DHT22;69286;48.222;16.332;2023-06-22T02:03:27;21.50;99.90
17843;DHT22;69286;48.222;16.332;2023-06-22T02:06:01;21.50;99.90
17843;DHT22;69286;48.222;16.332;2023-06-22T02:08:32;21.00;99.90
17843;DHT22;69286;48.222;16.332;2023-06-22T02:11:01;21.40;99.90
17843;DHT22;69286;48.222;16.332;2023-06-22T02:13:29;21.40;99.90
17843;DHT22;69286;48.222;16.332;2023-06-22T02:15:57;21.30;99.90
17843;DHT22;69286;48.222;16.332;2023-06-22T02:18:26;21.30;99.90
17843;DHT22;69286;48.222;16.332;2023-06-22T02:20:53;21.30;99.90
17843;DHT22;69286;48.222;16.332;2023-06-22T02:23:20;21.30;99.90
17843;DHT22;69286;48.222;16.332;2023-06-22T02:25:47;21.30;99.90
17843;DHT22;69286;48.222;16.332;2023-06-22T02:28:14;21.30;99.90
17843;DHT22;69286;48.222;16.332;2023-06-22T02:30:41;21.30;99.90
17843;DHT22;69286;48.222;16.332;2023-06-22T02:33:08;21.20;99.90
17843;DHT22;69286;48.222;16.332;2023-06-22T02:35:37;21.20;99.90
17843;DHT22;69286;48.222;16.332;2023-06-22T02:38:05;21.20;99.90
17843;DHT22;69286;48.222;16.332;2023-06-22T02:40:33;21.10;99.90
17843;DHT22;69286;48.222;16.332;2023-06-22T02:43:00;21.10;99.90
17843;DHT22;69286;48.222;16.332;2023-06-22T02:45:28;21.10;99.90
17843;DHT22;69286;48.222;16.332;2023-06-22T02:47:55;21.10;99.90
17843;DHT22;69286;48.222;16.332;2023-06-22T02:50:23;21.20;99.90
17843;DHT22;69286;48.222;16.332;2023-06-22T02:52:51;21.10;99.90
17843;DHT22;69286;48.222;16.332;2023-06-22T02:55:18;21.10;99.90
17843;DHT22;69286;48.222;16.332;2023-06-22T02:57:45;21.10;99.90
17843;DHT22;69286;48.222;16.332;2023-06-22T03:00:14;21.10;99.90
17843;DHT22;69286;48.222;16.332;2023-06-22T03:02:44;21.00;99.90
17843;DHT22;69286;48.222;16.332;2023-06-22T03:05:11;21.10;99.90
17843;DHT22;69286;48.222;16.332;2023-06-22T03:07:40;21.10;99.90
17843;DHT22;69286;48.222;16.332;2023-06-22T03:10:10;21.00;99.90
17843;DHT22;69286;48.222;16.332;2023-06-22T03:12:37;21.10;99.90
17843;DHT22;69286;48.222;16.332;2023-06-22T03:15:05;21.10;99.90
17843;DHT22;69286;48.222;16.332;2023-06-22T03:17:33;21.00;99.90
17843;DHT22;69286;48.222;16.332;2023-06-22T03:20:00;21.00;99.90
17843;DHT22;69286;48.222;16.332;2023-06-22T03:22:32;21.00;99.90
17843;DHT22;69286;48.222;16.332;2023-06-22T03:24:59;21.10;99.90
17843;DHT22;69286;48.222;16.332;2023-06-22T03:27:28;21.10;99.90
17843;DHT22;69286;48.222;16.332;2023-06-22T03:29:57;21.10;99.90
17843;DHT22;69286;48.222;16.332;2023-06-22T03:32:24;21.10;99.90
17843;DHT22;69286;48.222;16.332;2023-06-22T03:34:53;21.10;99.90
17843;DHT22;69286;48.222;16.332;2023-06-22T03:37:24;21.10;99.90
17843;DHT22;69286;48.222;16.332;2023-06-22T03:39:51;21.10;99.90
17843;DHT22;69286;48.222;16.332;2023-06-22T03:42:18;21.20;99.90
17843;DHT22;69286;48.222;16.332;2023-06-22T03:44:47;21.30;99.90
17843;DHT22;69286;48.222;16.332;2023-06-22T03:47:14;21.30;99.90
17843;DHT22;69286;48.222;16.332;2023-06-22T03:49:41;21.40;99.90
17843;DHT22;69286;48.222;16.332;2023-06-22T03:52:08;21.50;99.90
17843;DHT22;69286;48.222;16.332;2023-06-22T03:54:36;21.60;99.90
17843;DHT22;69286;48.222;16.332;2023-06-22T03:57:04;21.60;99.90
17843;DHT22;69286;48.222;16.332;2023-06-22T03:59:31;21.70;99.90
17843;DHT22;69286;48.222;16.332;2023-06-22T04:01:59;21.80;99.90
17843;DHT22;69286;48.222;16.332;2023-06-22T04:04:27;22.00;99.90
17843;DHT22;69286;48.222;16.332;2023-06-22T04:06:54;22.10;99.90
17843;DHT22;69286;48.222;16.332;2023-06-22T04:09:21;22.30;99.90
17843;DHT22;69286;48.222;16.332;2023-06-22T04:11:48;22.40;99.90
17843;DHT22;69286;48.222;16.332;2023-06-22T04:14:15;22.60;99.90
17843;DHT22;69286;48.222;16.332;2023-06-22T04:16:42;22.70;99.90
17843;DHT22;69286;48.222;16.332;2023-06-22T04:19:10;22.70;99.90
17843;DHT22;69286;48.222;16.332;2023-06-22T04:21:42;22.90;99.90
17843;DHT22;69286;48.222;16.332;2023-06-22T04:24:10;23.10;99.70
17843;DHT22;69286;48.222;16.332;2023-06-22T04:26:37;23.40;98.80
17843;DHT22;69286;48.222;16.332;2023-06-22T04:29:07;23.50;98.20
17843;DHT22;69286;48.222;16.332;2023-06-22T04:31:35;23.90;97.30
17843;DHT22;69286;48.222;16.332;2023-06-22T04:34:03;24.20;96.10
17843;DHT22;69286;48.222;16.332;2023-06-22T04:36:35;24.60;95.30
17843;DHT22;69286;48.222;16.332;2023-06-22T04:39:06;24.80;94.50
17843;DHT22;69286;48.222;16.332;2023-06-22T04:41:35;25.00;93.60
17843;DHT22;69286;48.222;16.332;2023-06-22T04:44:08;25.30;93.30
17843;DHT22;69286;48.222;16.332;2023-06-22T04:46:35;25.80;92.20
17843;DHT22;69286;48.222;16.332;2023-06-22T04:49:05;26.20;91.10
17843;DHT22;69286;48.222;16.332;2023-06-22T04:51:37;26.30;90.10
17843;DHT22;69286;48.222;16.332;2023-06-22T04:54:04;26.40;89.20
17843;DHT22;69286;48.222;16.332;2023-06-22T04:56:31;26.60;88.60
17843;DHT22;69286;48.222;16.332;2023-06-22T04:58:58;27.00;87.40
17843;DHT22;69286;48.222;16.332;2023-06-22T05:01:25;27.60;83.50
17843;DHT22;69286;48.222;16.332;2023-06-22T05:03:52;27.70;81.40
17843;DHT22;69286;48.222;16.332;2023-06-22T05:06:21;27.70;80.80
17843;DHT22;69286;48.222;16.332;2023-06-22T05:08:52;28.00;79.40
17843;DHT22;69286;48.222;16.332;2023-06-22T05:11:19;28.10;78.70
17843;DHT22;69286;48.222;16.332;2023-06-22T05:13:46;28.00;78.70
17843;DHT22;69286;48.222;16.332;2023-06-22T05:16:13;28.20;77.60
17843;DHT22;69286;48.222;16.332;2023-06-22T05:18:41;28.50;76.50
17843;DHT22;69286;48.222;16.332;2023-06-22T05:21:09;29.30;73.80
17843;DHT22;69286;48.222;16.332;2023-06-22T05:23:36;29.70;71.10
17843;DHT22;69286;48.222;16.332;2023-06-22T05:26:04;29.40;71.50
17843;DHT22;69286;48.222;16.332;2023-06-22T05:28:31;29.40;71.10
17843;DHT22;69286;48.222;16.332;2023-06-22T05:30:59;30.40;68.90
17843;DHT22;69286;48.222;16.332;2023-06-22T05:33:26;31.50;64.60
17843;DHT22;69286;48.222;16.332;2023-06-22T05:35:53;33.10;60.30
17843;DHT22;69286;48.222;16.332;2023-06-22T05:38:20;34.40;56.00
17843;DHT22;69286;48.222;16.332;2023-06-22T05:40:47;34.80;54.20
17843;DHT22;69286;48.222;16.332;2023-06-22T05:43:16;33.70;54.10
17843;DHT22;69286;48.222;16.332;2023-06-22T05:45:43;32.70;56.00
17843;DHT22;69286;48.222;16.332;2023-06-22T05:48:10;33.70;55.90
17843;DHT22;69286;48.222;16.332;2023-06-22T05:50:37;34.20;54.30
17843;DHT22;69286;48.222;16.332;2023-06-22T05:53:04;34.60;53.40
17843;DHT22;69286;48.222;16.332;2023-06-22T05:55:32;34.10;53.70
17843;DHT22;69286;48.222;16.332;2023-06-22T05:57:59;32.90;55.70
17843;DHT22;69286;48.222;16.332;2023-06-22T06:00:28;31.90;56.30
17843;DHT22;69286;48.222;16.332;2023-06-22T06:02:55;30.80;58.50
17843;DHT22;69286;48.222;16.332;2023-06-22T06:05:22;30.50;60.80
17843;DHT22;69286;48.222;16.332;2023-06-22T06:07:51;30.20;60.60
17843;DHT22;69286;48.222;16.332;2023-06-22T06:10:18;30.30;61.40
17843;DHT22;69286;48.222;16.332;2023-06-22T06:12:45;30.20;62.00
17843;DHT22;69286;48.222;16.332;2023-06-22T06:15:12;30.30;62.40
17843;DHT22;69286;48.222;16.332;2023-06-22T06:17:46;30.50;61.80
17843;DHT22;69286;48.222;16.332;2023-06-22T06:20:14;30.60;61.50
17843;DHT22;69286;48.222;16.332;2023-06-22T06:22:41;31.00;61.00
17843;DHT22;69286;48.222;16.332;2023-06-22T06:25:10;31.40;60.90
17843;DHT22;69286;48.222;16.332;2023-06-22T06:27:41;32.00;59.60
17843;DHT22;69286;48.222;16.332;2023-06-22T06:30:09;33.50;58.10
17843;DHT22;69286;48.222;16.332;2023-06-22T06:32:37;34.50;55.60
17843;DHT22;69286;48.222;16.332;2023-06-22T06:35:08;34.40;54.40
17843;DHT22;69286;48.222;16.332;2023-06-22T06:37:37;33.80;56.10
17843;DHT22;69286;48.222;16.332;2023-06-22T06:40:05;35.00;55.00
17843;DHT22;69286;48.222;16.332;2023-06-22T06:42:34;36.50;52.10
17843;DHT22;69286;48.222;16.332;2023-06-22T06:45:03;37.70;48.90
17843;DHT22;69286;48.222;16.332;2023-06-22T06:47:31;37.90;48.30
17843;DHT22;69286;48.222;16.332;2023-06-22T06:49:58;40.10;45.80
17843;DHT22;69286;48.222;16.332;2023-06-22T06:52:26;41.50;44.00
17843;DHT22;69286;48.222;16.332;2023-06-22T06:54:53;40.60;42.40
17843;DHT22;69286;48.222;16.332;2023-06-22T06:57:20;42.60;41.80
17843;DHT22;69286;48.222;16.332;2023-06-22T06:59:48;43.20;40.50
17843;DHT22;69286;48.222;16.332;2023-06-22T07:02:15;42.70;40.50
17843;DHT22;69286;48.222;16.332;2023-06-22T07:04:42;43.30;39.60
17843;DHT22;69286;48.222;16.332;2023-06-22T07:07:09;43.80;40.00
17843;DHT22;69286;48.222;16.332;2023-06-22T07:09:37;43.60;39.30
17843;DHT22;69286;48.222;16.332;2023-06-22T07:12:05;43.40;38.60
17843;DHT22;69286;48.222;16.332;2023-06-22T07:14:32;44.50;37.70
17843;DHT22;69286;48.222;16.332;2023-06-22T07:16:59;45.30;37.50
17843;DHT22;69286;48.222;16.332;2023-06-22T07:19:27;45.70;36.40
17843;DHT22;69286;48.222;16.332;2023-06-22T07:21:54;45.70;36.50
17843;DHT22;69286;48.222;16.332;2023-06-22T07:24:21;45.80;36.70
17843;DHT22;69286;48.222;16.332;2023-06-22T07:26:50;45.50;35.80
17843;DHT22;69286;48.222;16.332;2023-06-22T07:29:18;45.00;36.00
17843;DHT22;69286;48.222;16.332;2023-06-22T07:31:46;44.40;36.10
17843;DHT22;69286;48.222;16.332;2023-06-22T07:34:13;44.80;36.60
17843;DHT22;69286;48.222;16.332;2023-06-22T07:36:40;45.80;36.10
17843;DHT22;69286;48.222;16.332;2023-06-22T07:39:07;46.00;35.60
17843;DHT22;69286;48.222;16.332;2023-06-22T07:41:34;45.80;36.00
17843;DHT22;69286;48.222;16.332;2023-06-22T07:44:02;45.90;34.90
17843;DHT22;69286;48.222;16.332;2023-06-22T07:46:29;45.10;35.90
17843;DHT22;69286;48.222;16.332;2023-06-22T07:48:56;43.70;37.00
17843;DHT22;69286;48.222;16.332;2023-06-22T07:51:25;44.70;36.90
17843;DHT22;69286;48.222;16.332;2023-06-22T07:53:52;43.60;37.20
17843;DHT22;69286;48.222;16.332;2023-06-22T07:56:19;43.20;37.80
17843;DHT22;69286;48.222;16.332;2023-06-22T07:58:46;42.20;38.00
17843;DHT22;69286;48.222;16.332;2023-06-22T08:01:15;41.20;38.60
17843;DHT22;69286;48.222;16.332;2023-06-22T08:03:42;41.10;39.40
17843;DHT22;69286;48.222;16.332;2023-06-22T08:06:09;40.60;40.90
17843;DHT22;69286;48.222;16.332;2023-06-22T08:08:36;40.60;40.80
17843;DHT22;69286;48.222;16.332;2023-06-22T08:11:04;39.90;41.70
17843;DHT22;69286;48.222;16.332;2023-06-22T08:13:31;39.40;42.50
17843;DHT22;69286;48.222;16.332;2023-06-22T08:15:59;38.70;43.50
17843;DHT22;69286;48.222;16.332;2023-06-22T08:18:28;38.30;44.60
17843;DHT22;69286;48.222;16.332;2023-06-22T08:20:55;38.30;44.30
17843;DHT22;69286;48.222;16.332;2023-06-22T08:23:22;38.20;44.80
17843;DHT22;69286;48.222;16.332;2023-06-22T08:25:49;39.30;44.10
17843;DHT22;69286;48.222;16.332;2023-06-22T08:28:16;40.50;43.10
17843;DHT22;69286;48.222;16.332;2023-06-22T08:30:43;41.30;42.80
17843;DHT22;69286;48.222;16.332;2023-06-22T08:33:10;42.20;41.20
17843;DHT22;69286;48.222;16.332;2023-06-22T08:35:39;42.50;40.10
17843;DHT22;69286;48.222;16.332;2023-06-22T08:38:07;43.90;39.00
17843;DHT22;69286;48.222;16.332;2023-06-22T08:40:34;42.70;38.50
17843;DHT22;69286;48.222;16.332;2023-06-22T08:43:01;43.70;39.40
17843;DHT22;69286;48.222;16.332;2023-06-22T08:45:28;43.90;38.60
17843;DHT22;69286;48.222;16.332;2023-06-22T08:47:56;43.90;38.70
17843;DHT22;69286;48.222;16.332;2023-06-22T08:50:23;45.00;38.00
17843;DHT22;69286;48.222;16.332;2023-06-22T08:52:51;44.70;37.80
17843;DHT22;69286;48.222;16.332;2023-06-22T08:55:18;45.60;36.60
17843;DHT22;69286;48.222;16.332;2023-06-22T08:57:45;43.70;36.50
17843;DHT22;69286;48.222;16.332;2023-06-22T09:00:13;43.60;37.40
17843;DHT22;69286;48.222;16.332;2023-06-22T09:02:43;45.00;36.30
17843;DHT22;69286;48.222;16.332;2023-06-22T09:05:10;44.80;35.60
17843;DHT22;69286;48.222;16.332;2023-06-22T09:07:37;44.80;35.90
17843;DHT22;69286;48.222;16.332;2023-06-22T09:10:06;44.80;36.70
17843;DHT22;69286;48.222;16.332;2023-06-22T09:12:34;44.50;36.40
17843;DHT22;69286;48.222;16.332;2023-06-22T09:15:04;43.90;36.40
17843;DHT22;69286;48.222;16.332;2023-06-22T09:17:33;44.00;37.20
17843;DHT22;69286;48.222;16.332;2023-06-22T09:20:02;44.10;35.80
17843;DHT22;69286;48.222;16.332;2023-06-22T09:22:31;44.70;36.10
17843;DHT22;69286;48.222;16.332;2023-06-22T09:24:59;45.50;35.50
17843;DHT22;69286;48.222;16.332;2023-06-22T09:27:28;45.10;35.40
17843;DHT22;69286;48.222;16.332;2023-06-22T09:29:55;42.90;37.00
17843;DHT22;69286;48.222;16.332;2023-06-22T09:32:24;42.60;37.40
17843;DHT22;69286;48.222;16.332;2023-06-22T09:34:51;43.00;36.70
17843;DHT22;69286;48.222;16.332;2023-06-22T09:37:18;41.70;37.70
17843;DHT22;69286;48.222;16.332;2023-06-22T09:39:45;41.80;38.60
17843;DHT22;69286;48.222;16.332;2023-06-22T09:42:12;39.10;41.00
17843;DHT22;69286;48.222;16.332;2023-06-22T09:44:41;38.90;42.30
17843;DHT22;69286;48.222;16.332;2023-06-22T09:47:08;37.30;44.20
17843;DHT22;69286;48.222;16.332;2023-06-22T09:49:35;35.90;46.50
17843;DHT22;69286;48.222;16.332;2023-06-22T09:52:02;35.30;47.90
17843;DHT22;69286;48.222;16.332;2023-06-22T09:54:29;35.10;48.50
17843;DHT22;69286;48.222;16.332;2023-06-22T09:56:56;34.50;49.10
17843;DHT22;69286;48.222;16.332;2023-06-22T09:59:23;34.10;50.10
17843;DHT22;69286;48.222;16.332;2023-06-22T10:01:51;33.50;51.20
17843;DHT22;69286;48.222;16.332;2023-06-22T10:04:18;33.40;51.70
17843;DHT22;69286;48.222;16.332;2023-06-22T10:06:45;33.50;51.90
17843;DHT22;69286;48.222;16.332;2023-06-22T10:09:13;33.50;51.60
17843;DHT22;69286;48.222;16.332;2023-06-22T10:11:40;33.10;52.10
17843;DHT22;69286;48.222;16.332;2023-06-22T10:14:07;32.90;52.70
17843;DHT22;69286;48.222;16.332;2023-06-22T10:16:36;32.80;53.00
17843;DHT22;69286;48.222;16.332;2023-06-22T10:19:04;32.70;53.90
17843;DHT22;69286;48.222;16.332;2023-06-22T10:21:31;32.70;54.10
17843;DHT22;69286;48.222;16.332;2023-06-22T10:23:59;32.80;53.90
17843;DHT22;69286;48.222;16.332;2023-06-22T10:26:31;32.60;53.80
17843;DHT22;69286;48.222;16.332;2023-06-22T10:28:58;32.70;54.40
17843;DHT22;69286;48.222;16.332;2023-06-22T10:31:25;32.60;54.50
17843;DHT22;69286;48.222;16.332;2023-06-22T10:33:53;32.50;54.50
17843;DHT22;69286;48.222;16.332;2023-06-22T10:36:22;32.60;54.10
17843;DHT22;69286;48.222;16.332;2023-06-22T10:38:49;32.40;54.50
17843;DHT22;69286;48.222;16.332;2023-06-22T10:41:16;32.40;54.30
17843;DHT22;69286;48.222;16.332;2023-06-22T10:43:43;32.40;54.60
17843;DHT22;69286;48.222;16.332;2023-06-22T10:46:10;32.40;54.70
17843;DHT22;69286;48.222;16.332;2023-06-22T10:48:36;32.40;53.10
17843;DHT22;69286;48.222;16.332;2023-06-22T10:51:04;32.50;53.10
17843;DHT22;69286;48.222;16.332;2023-06-22T10:53:32;32.50;52.80
17843;DHT22;69286;48.222;16.332;2023-06-22T10:55:59;32.10;53.50
17843;DHT22;69286;48.222;16.332;2023-06-22T10:58:26;32.10;53.60
17843;DHT22;69286;48.222;16.332;2023-06-22T11:00:53;32.10;52.80
17843;DHT22;69286;48.222;16.332;2023-06-22T11:03:20;32.00;53.40
17843;DHT22;69286;48.222;16.332;2023-06-22T11:05:47;31.70;53.50
17843;DHT22;69286;48.222;16.332;2023-06-22T11:08:14;32.00;53.50
17843;DHT22;69286;48.222;16.332;2023-06-22T11:10:43;31.90;53.70
17843;DHT22;69286;48.222;16.332;2023-06-22T11:13:10;31.90;54.20
17843;DHT22;69286;48.222;16.332;2023-06-22T11:15:37;32.10;53.60
17843;DHT22;69286;48.222;16.332;2023-06-22T11:18:05;32.10;53.20
17843;DHT22;69286;48.222;16.332;2023-06-22T11:20:33;32.00;53.30
17843;DHT22;69286;48.222;16.332;2023-06-22T11:23:04;31.90;53.50
17843;DHT22;69286;48.222;16.332;2023-06-22T11:25:31;31.80;53.60
17843;DHT22;69286;48.222;16.332;2023-06-22T11:28:02;31.90;53.90
17843;DHT22;69286;48.222;16.332;2023-06-22T11:30:29;31.70;54.20
17843;DHT22;69286;48.222;16.332;2023-06-22T11:32:58;31.80;54.20
17843;DHT22;69286;48.222;16.332;2023-06-22T11:35:25;31.90;54.00
17843;DHT22;69286;48.222;16.332;2023-06-22T11:37:52;31.80;54.20
17843;DHT22;69286;48.222;16.332;2023-06-22T11:40:19;31.70;54.40
17843;DHT22;69286;48.222;16.332;2023-06-22T11:42:46;31.70;54.70
17843;DHT22;69286;48.222;16.332;2023-06-22T11:45:15;31.70;54.70
17843;DHT22;69286;48.222;16.332;2023-06-22T11:47:43;31.60;54.10
17843;DHT22;69286;48.222;16.332;2023-06-22T11:50:10;31.70;54.00
17843;DHT22;69286;48.222;16.332;2023-06-22T11:52:37;31.70;54.20
17843;DHT22;69286;48.222;16.332;2023-06-22T11:55:05;31.90;53.60
17843;DHT22;69286;48.222;16.332;2023-06-22T11:57:33;31.60;53.10
17843;DHT22;69286;48.222;16.332;2023-06-22T12:00:01;31.40;54.10
17843;DHT22;69286;48.222;16.332;2023-06-22T12:02:33;31.60;54.00
17843;DHT22;69286;48.222;16.332;2023-06-22T12:05:00;31.70;54.00
17843;DHT22;69286;48.222;16.332;2023-06-22T12:07:30;31.70;54.00
17843;DHT22;69286;48.222;16.332;2023-06-22T12:09:57;31.70;54.00
17843;DHT22;69286;48.222;16.332;2023-06-22T12:12:24;31.80;54.10
17843;DHT22;69286;48.222;16.332;2023-06-22T12:14:51;32.00;53.80
17843;DHT22;69286;48.222;16.332;2023-06-22T12:17:18;31.80;53.20
17843;DHT22;69286;48.222;16.332;2023-06-22T12:19:46;31.80;53.30
17843;DHT22;69286;48.222;16.332;2023-06-22T12:22:13;31.80;53.30
17843;DHT22;69286;48.222;16.332;2023-06-22T12:24:40;31.90;53.30
17843;DHT22;69286;48.222;16.332;2023-06-22T12:27:07;31.90;53.60
17843;DHT22;69286;48.222;16.332;2023-06-22T12:29:35;32.00;53.50
17843;DHT22;69286;48.222;16.332;2023-06-22T12:32:03;32.00;53.60
17843;DHT22;69286;48.222;16.332;2023-06-22T12:34:30;32.00;53.50
17843;DHT22;69286;48.222;16.332;2023-06-22T12:36:58;32.00;53.90
17843;DHT22;69286;48.222;16.332;2023-06-22T12:39:25;32.00;54.10
17843;DHT22;69286;48.222;16.332;2023-06-22T12:41:52;31.90;54.30
17843;DHT22;69286;48.222;16.332;2023-06-22T12:44:19;31.80;53.90
17843;DHT22;69286;48.222;16.332;2023-06-22T12:46:46;31.80;53.80
17843;DHT22;69286;48.222;16.332;2023-06-22T12:49:13;31.80;54.10
17843;DHT22;69286;48.222;16.332;2023-06-22T12:51:40;31.80;54.00
17843;DHT22;69286;48.222;16.332;2023-06-22T12:54:10;31.80;54.00
17843;DHT22;69286;48.222;16.332;2023-06-22T12:56:38;31.90;54.20
17843;DHT22;69286;48.222;16.332;2023-06-22T12:59:05;31.80;53.40
17843;DHT22;69286;48.222;16.332;2023-06-22T13:01:32;32.00;53.60
17843;DHT22;69286;48.222;16.332;2023-06-22T13:03:59;31.90;53.80
17843;DHT22;69286;48.222;16.332;2023-06-22T13:06:26;31.90;54.20
17843;DHT22;69286;48.222;16.332;2023-06-22T13:08:53;32.00;54.30
17843;DHT22;69286;48.222;16.332;2023-06-22T13:11:21;32.10;54.50
17843;DHT22;69286;48.222;16.332;2023-06-22T13:13:49;31.90;53.80
17843;DHT22;69286;48.222;16.332;2023-06-22T13:16:16;31.90;54.40
17843;DHT22;69286;48.222;16.332;2023-06-22T13:18:43;31.70;54.20
17843;DHT22;69286;48.222;16.332;2023-06-22T13:21:10;31.70;54.50
17843;DHT22;69286;48.222;16.332;2023-06-22T13:23:36;31.60;54.40
17843;DHT22;69286;48.222;16.332;2023-06-22T13:26:03;31.60;54.60
17843;DHT22;69286;48.222;16.332;2023-06-22T13:28:32;31.60;54.60
17843;DHT22;69286;48.222;16.332;2023-06-22T13:30:59;31.70;54.70
17843;DHT22;69286;48.222;16.332;2023-06-22T13:33:26;31.70;54.70
17843;DHT22;69286;48.222;16.332;2023-06-22T13:35:52;31.70;54.20
17843;DHT22;69286;48.222;16.332;2023-06-22T13:38:20;31.70;53.60
17843;DHT22;69286;48.222;16.332;2023-06-22T13:40:48;31.70;53.80
17843;DHT22;69286;48.222;16.332;2023-06-22T13:43:16;31.70;54.10
17843;DHT22;69286;48.222;16.332;2023-06-22T13:45:44;31.70;54.20
17843;DHT22;69286;48.222;16.332;2023-06-22T13:48:11;31.50;54.60
17843;DHT22;69286;48.222;16.332;2023-06-22T13:50:38;31.40;54.70
17843;DHT22;69286;48.222;16.332;2023-06-22T13:53:05;31.40;54.30
17843;DHT22;69286;48.222;16.332;2023-06-22T13:55:32;31.40;54.50
17843;DHT22;69286;48.222;16.332;2023-06-22T13:57:59;31.40;54.70
17843;DHT22;69286;48.222;16.332;2023-06-22T14:00:26;31.50;54.70
17843;DHT22;69286;48.222;16.332;2023-06-22T14:02:54;31.50;54.50
17843;DHT22;69286;48.222;16.332;2023-06-22T14:05:21;31.50;54.50
17843;DHT22;69286;48.222;16.332;2023-06-22T14:07:48;31.40;54.50
17843;DHT22;69286;48.222;16.332;2023-06-22T14:10:15;31.20;54.80
17843;DHT22;69286;48.222;16.332;2023-06-22T14:12:42;31.30;55.60
17843;DHT22;69286;48.222;16.332;2023-06-22T14:15:10;31.30;55.50
17843;DHT22;69286;48.222;16.332;2023-06-22T14:17:37;31.20;55.80
17843;DHT22;69286;48.222;16.332;2023-06-22T14:20:07;31.30;56.00
17843;DHT22;69286;48.222;16.332;2023-06-22T14:22:34;31.30;55.90
17843;DHT22;69286;48.222;16.332;2023-06-22T14:25:02;31.20;55.90
17843;DHT22;69286;48.222;16.332;2023-06-22T14:27:29;31.20;56.30
17843;DHT22;69286;48.222;16.332;2023-06-22T14:29:56;31.20;56.30
17843;DHT22;69286;48.222;16.332;2023-06-22T14:32:23;31.20;56.60
17843;DHT22;69286;48.222;16.332;2023-06-22T14:34:50;31.10;56.80
17843;DHT22;69286;48.222;16.332;2023-06-22T14:37:19;31.10;57.00
17843;DHT22;69286;48.222;16.332;2023-06-22T14:39:46;31.00;57.10
17843;DHT22;69286;48.222;16.332;2023-06-22T14:42:12;31.10;57.20
17843;DHT22;69286;48.222;16.332;2023-06-22T14:44:39;31.10;57.00
17843;DHT22;69286;48.222;16.332;2023-06-22T14:47:07;31.10;57.10
17843;DHT22;69286;48.222;16.332;2023-06-22T14:49:34;31.10;57.00
17843;DHT22;69286;48.222;16.332;2023-06-22T14:52:02;31.00;57.10
17843;DHT22;69286;48.222;16.332;2023-06-22T14:54:30;31.10;57.10
17843;DHT22;69286;48.222;16.332;2023-06-22T14:56:57;31.10;57.20
17843;DHT22;69286;48.222;16.332;2023-06-22T14:59:24;30.90;57.40
17843;DHT22;69286;48.222;16.332;2023-06-22T15:01:51;31.00;57.30
17843;DHT22;69286;48.222;16.332;2023-06-22T15:04:18;31.00;57.40
17843;DHT22;69286;48.222;16.332;2023-06-22T15:06:45;31.00;57.20
17843;DHT22;69286;48.222;16.332;2023-06-22T15:09:12;30.90;57.30
17843;DHT22;69286;48.222;16.332;2023-06-22T15:11:40;31.00;57.50
17843;DHT22;69286;48.222;16.332;2023-06-22T15:14:07;31.10;57.50
17843;DHT22;69286;48.222;16.332;2023-06-22T15:16:34;31.10;57.60
17843;DHT22;69286;48.222;16.332;2023-06-22T15:19:01;31.20;57.80